Time;durP1;ratioP1;P1;durP2;ratioP2;P2;SDS_P1;SDS_P2;PMS_P1;PMS_P2;Temp;Humidity;BMP_temperature;BMP_pressure;BME280_temperature;BME280_humidity;BME280_pressure;Samples;Min_cycle;Max_cycle;Signal;HPM_P1;HPM_P2
2022/02/08 00:00:52;;;;;;;16.67;4.13;;;7.40;37.10;;;;;;5090280;28;20434;-79
2022/02/08 00:03:20;;;;;;;18.02;3.90;;;7.50;36.90;;;;;;5079237;28;20395;-76
2022/02/08 00:05:56;;;;;;;21.15;4.25;;;7.40;36.80;;;;;;5074059;28;20405;-79
2022/02/08 00:08:21;;;;;;;12.90;3.80;;;7.40;37.00;;;;;;5087075;28;20419;-79
2022/02/08 00:10:47;;;;;;;14.60;3.70;;;7.50;37.30;;;;;;5093272;28;20973;-78
2022/02/08 00:13:13;;;;;;;20.23;4.15;;;7.50;37.10;;;;;;5092406;28;20436;-80
2022/02/08 00:15:38;;;;;;;9.20;3.70;;;7.50;37.50;;;;;;5088584;28;20390;-79
2022/02/08 00:18:04;;;;;;;16.73;3.95;;;7.50;37.60;;;;;;5093141;28;20378;-80
2022/02/08 00:20:30;;;;;;;14.70;3.70;;;7.50;37.80;;;;;;5098676;28;20388;-77
2022/02/08 00:22:55;;;;;;;18.13;4.20;;;7.50;38.50;;;;;;5095627;28;20406;-78
2022/02/08 00:25:21;;;;;;;15.97;4.20;;;7.50;38.60;;;;;;5102039;28;20866;-79
2022/02/08 00:27:46;;;;;;;22.00;4.10;;;7.50;38.90;;;;;;5082075;28;20422;-77
2022/02/08 00:30:12;;;;;;;15.20;5.27;;;7.60;39.20;;;;;;5101137;28;20384;-79
2022/02/08 00:32:38;;;;;;;20.93;4.17;;;7.60;39.50;;;;;;5095514;28;20809;-77
2022/02/08 00:35:04;;;;;;;17.88;4.18;;;7.50;40.30;;;;;;5095726;28;20385;-79
2022/02/08 00:37:29;;;;;;;20.27;3.90;;;7.50;40.90;;;;;;5093496;28;20398;-79
2022/02/08 00:39:55;;;;;;;18.57;5.13;;;7.50;41.40;;;;;;5087585;28;20379;-77
2022/02/08 00:42:24;;;;;;;22.75;5.22;;;7.50;42.00;;;;;;5088759;28;20390;-79
2022/02/08 00:44:57;;;;;;;19.98;4.13;;;7.50;42.70;;;;;;5093910;28;20409;-77
2022/02/08 00:49:49;;;;;;;22.80;5.32;;;7.70;42.50;;;;;;5113391;28;20755;-77
2022/02/08 00:52:15;;;;;;;19.30;4.53;;;7.60;43.30;;;;;;5087654;27;20390;-78
2022/02/08 00:54:47;;;;;;;19.75;4.80;;;7.80;43.60;;;;;;5073768;28;20911;-77
2022/02/08 00:57:13;;;;;;;22.88;5.05;;;7.70;44.30;;;;;;5077589;28;20737;-77
2022/02/08 00:59:39;;;;;;;18.53;5.00;;;7.70;45.10;;;;;;5075429;28;20752;-77
2022/02/08 01:02:06;;;;;;;29.73;6.38;;;7.70;45.30;;;;;;5093322;28;20397;-77
2022/02/08 01:04:31;;;;;;;22.88;5.72;;;7.70;46.40;;;;;;5096909;28;20416;-78
2022/02/08 01:06:58;;;;;;;32.37;6.00;;;7.70;46.40;;;;;;5098008;28;20378;-78
2022/02/08 01:09:51;;;;;;;24.80;6.10;;;7.70;46.90;;;;;;5089496;28;20396;-78
2022/02/08 01:12:11;;;;;;;19.67;5.28;;;7.70;48.90;;;;;;5085638;28;20846;-78
2022/02/08 01:14:40;;;;;;;19.98;5.63;;;7.70;50.30;;;;;;5092887;28;20461;-77
2022/02/08 01:17:07;;;;;;;22.80;5.70;;;7.50;51.10;;;;;;5092206;28;20413;-77
2022/02/08 01:19:33;;;;;;;22.17;5.47;;;7.50;53.30;;;;;;5091624;28;20370;-78
2022/02/08 01:21:59;;;;;;;18.50;6.05;;;7.50;55.10;;;;;;5087924;28;20516;-78
2022/02/08 01:24:25;;;;;;;25.13;5.80;;;7.50;55.80;;;;;;5093325;28;20420;-78
2022/02/08 01:27:00;;;;;;;28.83;5.97;;;7.60;56.00;;;;;;5094706;28;20443;-78
2022/02/08 01:34:58;;;;;;;30.02;6.45;;;7.40;62.30;;;;;;5093521;28;20381;-78
2022/02/08 01:37:43;;;;;;;25.45;6.15;;;7.30;66.70;;;;;;5092571;28;20429;-78
2022/02/08 01:45:44;;;;;;;27.65;5.80;;;7.20;73.70;;;;;;5073127;28;20401;-78
2022/02/08 01:48:13;;;;;;;20.80;5.70;;;7.10;76.00;;;;;;5085609;28;20395;-78
2022/02/08 01:50:40;;;;;;;24.35;5.93;;;7.10;77.00;;;;;;5098825;28;20517;-78
2022/02/08 01:53:06;;;;;;;24.10;5.40;;;7.10;76.80;;;;;;5094172;28;20933;-77
2022/02/08 01:55:32;;;;;;;25.30;5.82;;;7.10;76.20;;;;;;5095827;28;20381;-76
2022/02/08 01:57:59;;;;;;;15.18;5.05;;;7.10;78.30;;;;;;5092214;28;20385;-80
2022/02/08 02:00:24;;;;;;;21.40;5.97;;;7.10;79.50;;;;;;5096938;28;20401;-78
2022/02/08 02:02:50;;;;;;;22.43;5.60;;;7.00;79.60;;;;;;5097091;28;20394;-78
2022/02/08 02:05:16;;;;;;;22.33;6.10;;;7.00;80.80;;;;;;5099669;28;20434;-78
2022/02/08 02:07:48;;;;;;;17.05;5.40;;;7.00;80.30;;;;;;5102201;28;20396;-78
2022/02/08 02:10:15;;;;;;;19.65;5.70;;;7.00;81.80;;;;;;5101110;28;20461;-78
2022/02/08 02:13:02;;;;;;;17.70;6.10;;;7.00;82.70;;;;;;5100150;28;20405;-77
2022/02/08 02:15:29;;;;;;;18.10;6.20;;;7.10;81.00;;;;;;5098573;28;20386;-79
2022/02/08 02:17:55;;;;;;;16.15;4.90;;;7.10;79.70;;;;;;5095650;28;20803;-79
2022/02/08 02:20:22;;;;;;;19.52;5.18;;;7.00;80.60;;;;;;5096685;28;20390;-78
2022/02/08 02:22:48;;;;;;;26.10;5.60;;;7.10;80.40;;;;;;5100256;28;20392;-78
2022/02/08 02:25:28;;;;;;;19.03;6.33;;;6.90;81.40;;;;;;5102393;28;20382;-78
2022/02/08 02:27:57;;;;;;;19.00;5.45;;;7.00;82.80;;;;;;5095293;28;20399;-77
2022/02/08 02:30:24;;;;;;;16.52;6.10;;;7.10;80.70;;;;;;5093367;28;20444;-78
2022/02/08 02:32:50;;;;;;;17.52;5.40;;;7.00;82.20;;;;;;5092286;28;20429;-78
2022/02/08 02:35:16;;;;;;;18.70;5.33;;;7.10;81.40;;;;;;5102650;28;20378;-77
2022/02/08 02:37:41;;;;;;;20.40;5.37;;;7.10;81.50;;;;;;5104008;28;20414;-78
2022/02/08 02:40:07;;;;;;;16.47;5.00;;;7.00;82.60;;;;;;5099368;28;20436;-78
2022/02/08 02:42:34;;;;;;;15.38;5.00;;;7.10;82.90;;;;;;5087444;28;20409;-79
2022/02/08 02:45:01;;;;;;;24.58;5.88;;;7.10;83.10;;;;;;5085665;28;20380;-78
2022/02/08 02:47:26;;;;;;;18.20;5.15;;;7.10;82.60;;;;;;5088790;28;20380;-77
2022/02/08 02:49:52;;;;;;;16.07;5.10;;;7.10;83.10;;;;;;5105408;28;20422;-78
2022/02/08 02:52:17;;;;;;;14.63;4.70;;;7.20;82.30;;;;;;5106673;28;20405;-76
2022/02/08 02:54:43;;;;;;;17.40;5.97;;;7.20;81.70;;;;;;5108287;28;20739;-77
2022/02/08 02:57:11;;;;;;;15.53;5.10;;;7.10;83.70;;;;;;5108516;28;20382;-77
2022/02/08 02:59:38;;;;;;;15.95;5.72;;;7.10;84.10;;;;;;5104143;28;20801;-76
2022/02/08 03:04:53;;;;;;;20.92;6.13;;;7.20;84.30;;;;;;5103881;28;20477;-77
2022/02/08 03:20:45;;;;;;;14.85;5.97;;;7.40;82.90;;;;;;5109488;28;20412;-78
2022/02/08 03:23:10;;;;;;;15.13;6.43;;;7.40;83.20;;;;;;5084508;28;20399;-78
2022/02/08 03:25:36;;;;;;;16.60;6.28;;;7.40;83.80;;;;;;5080740;28;20438;-78
2022/02/08 03:28:02;;;;;;;19.38;6.30;;;7.40;84.30;;;;;;5096041;28;20511;-78
2022/02/08 03:30:27;;;;;;;13.88;6.45;;;7.50;84.10;;;;;;5096081;28;20389;-79
2022/02/08 03:32:54;;;;;;;10.67;5.50;;;7.50;83.40;;;;;;5093343;28;20405;-78
2022/02/08 03:35:20;;;;;;;10.02;5.75;;;7.60;83.60;;;;;;5096007;28;20905;-78
2022/02/08 03:37:55;;;;;;;15.85;5.95;;;7.60;81.70;;;;;;5097164;28;20390;-78
2022/02/08 03:40:40;;;;;;;17.67;6.60;;;7.60;83.90;;;;;;5096059;28;20386;-80
2022/02/08 03:45:51;;;;;;;10.45;6.50;;;7.70;83.10;;;;;;5089115;28;20429;-78
2022/02/08 03:48:19;;;;;;;13.23;6.35;;;7.70;84.00;;;;;;5095499;28;20557;-78
2022/02/08 03:50:51;;;;;;;14.65;6.30;;;7.60;85.10;;;;;;5096185;28;20921;-78
2022/02/08 03:53:17;;;;;;;13.63;5.95;;;7.70;83.90;;;;;;5094481;28;20756;-79
2022/02/08 03:55:43;;;;;;;14.13;6.20;;;7.70;83.60;;;;;;5095332;28;20401;-79
2022/02/08 03:58:09;;;;;;;15.60;6.10;;;7.70;84.20;;;;;;5095382;28;20879;-78
2022/02/08 04:00:46;;;;;;;8.93;6.18;;;7.70;84.00;;;;;;5094810;28;20452;-78
2022/02/08 04:03:11;;;;;;;17.05;7.35;;;7.80;84.40;;;;;;5078463;28;20395;-77
2022/02/08 04:05:42;;;;;;;11.70;6.30;;;7.80;83.80;;;;;;5091202;28;20387;-77
2022/02/08 04:08:11;;;;;;;17.83;7.60;;;7.90;82.90;;;;;;5083788;28;20398;-77
2022/02/08 04:10:36;;;;;;;22.35;7.88;;;7.90;83.40;;;;;;5097377;28;20474;-77
2022/02/08 04:13:14;;;;;;;17.55;7.28;;;7.90;84.00;;;;;;5090725;28;20452;-78
2022/02/08 04:18:47;;;;;;;14.25;7.70;;;7.90;84.90;;;;;;5093829;28;20411;-78
2022/02/08 04:40:52;;;;;;;15.05;9.30;;;8.10;87.00;;;;;;5049993;28;20397;-78
2022/02/08 04:43:24;;;;;;;18.75;8.80;;;8.10;86.00;;;;;;5072178;28;20397;-79
2022/02/08 04:45:56;;;;;;;18.73;9.38;;;8.10;86.50;;;;;;5094617;28;20465;-79
2022/02/08 04:51:03;;;;;;;16.53;9.13;;;8.10;86.60;;;;;;5095219;28;20481;-78
2022/02/08 04:53:36;;;;;;;16.23;9.35;;;8.10;86.60;;;;;;5087670;28;20454;-78
2022/02/08 04:56:14;;;;;;;20.75;9.90;;;8.10;87.70;;;;;;5100279;28;20374;-77
2022/02/08 04:58:51;;;;;;;17.20;9.05;;;8.20;87.00;;;;;;5103417;28;20380;-77
2022/02/08 05:01:38;;;;;;;13.45;8.55;;;8.20;87.50;;;;;;5098847;28;20873;-78
2022/02/08 05:29:47;;;;;;;13.27;8.00;;;8.30;91.00;;;;;;5093107;28;20393;-78
2022/02/08 05:45:08;;;;;;;10.05;8.40;;;8.30;88.40;;;;;;5094757;28;20479;-76
2022/02/08 05:47:40;;;;;;;10.93;8.15;;;8.30;90.00;;;;;;5101887;28;20459;-77
2022/02/08 05:50:10;;;;;;;13.35;9.30;;;8.30;89.60;;;;;;5101834;28;20386;-77
2022/02/08 05:52:50;;;;;;;12.90;9.07;;;8.30;91.30;;;;;;5091108;28;20409;-78
2022/02/08 05:55:15;;;;;;;10.48;8.70;;;8.30;90.70;;;;;;5095946;28;20378;-79
2022/02/08 05:57:41;;;;;;;14.43;9.38;;;8.30;92.70;;;;;;5094113;28;20898;-78
2022/02/08 06:00:09;;;;;;;12.98;9.20;;;8.30;92.80;;;;;;5080916;28;20403;-78
2022/02/08 06:02:35;;;;;;;11.83;9.40;;;8.30;94.50;;;;;;5086974;28;20385;-77
2022/02/08 06:05:01;;;;;;;11.03;9.60;;;8.30;95.10;;;;;;5091321;28;20477;-77
2022/02/08 06:07:26;;;;;;;16.17;10.02;;;8.30;94.70;;;;;;5096334;28;20378;-77
2022/02/08 06:09:55;;;;;;;12.52;8.90;;;8.40;94.50;;;;;;5087557;28;20395;-78
2022/02/08 06:12:26;;;;;;;13.23;8.88;;;8.40;96.00;;;;;;5092559;28;20461;-78
2022/02/08 06:14:58;;;;;;;17.55;10.70;;;8.40;94.90;;;;;;5102893;28;21022;-78
2022/02/08 06:17:24;;;;;;;11.52;9.30;;;8.30;96.70;;;;;;5095719;28;20457;-78
2022/02/08 06:19:50;;;;;;;13.57;9.20;;;8.30;97.30;;;;;;5101980;28;20393;-78
2022/02/08 06:22:16;;;;;;;12.00;9.10;;;8.30;97.20;;;;;;5092578;28;20403;-78
2022/02/08 06:24:42;;;;;;;12.23;9.45;;;8.30;97.30;;;;;;5103029;28;20374;-78
2022/02/08 06:27:09;;;;;;;13.37;10.40;;;8.30;97.80;;;;;;5098250;28;20455;-80
2022/02/08 06:29:34;;;;;;;15.02;9.60;;;8.30;99.80;;;;;;5087832;28;20435;-78
2022/02/08 06:32:00;;;;;;;12.23;9.50;;;8.30;99.90;;;;;;5087715;28;20405;-78
2022/02/08 06:34:30;;;;;;;18.90;10.23;;;8.30;99.90;;;;;;5096652;28;20456;-78
2022/02/08 06:37:01;;;;;;;13.20;10.55;;;8.30;99.90;;;;;;5089541;28;20399;-79
2022/02/08 06:39:33;;;;;;;15.48;10.30;;;8.30;99.90;;;;;;5095978;28;20417;-77
2022/02/08 06:41:58;;;;;;;15.63;10.13;;;8.40;99.90;;;;;;5108456;28;20412;-78
2022/02/08 06:44:24;;;;;;;14.40;10.00;;;8.30;99.90;;;;;;5109443;28;20399;-78
2022/02/08 06:46:50;;;;;;;10.95;8.98;;;8.40;99.90;;;;;;5095200;28;20440;-80
2022/02/08 06:49:16;;;;;;;11.52;8.75;;;8.40;99.90;;;;;;5105932;28;20476;-79
2022/02/08 06:51:42;;;;;;;12.70;8.90;;;8.50;97.30;;;;;;5081903;28;20467;-77
2022/02/08 06:54:07;;;;;;;13.43;9.10;;;8.50;98.00;;;;;;5085312;28;20498;-76
2022/02/08 06:56:33;;;;;;;13.83;8.80;;;8.50;99.10;;;;;;5085879;28;20407;-76
2022/02/08 06:59:06;;;;;;;10.97;9.17;;;8.50;98.10;;;;;;5101908;28;20394;-76
2022/02/08 07:01:33;;;;;;;14.32;8.93;;;8.40;99.90;;;;;;5088833;28;20407;-76
2022/02/08 07:04:00;;;;;;;14.23;9.90;;;8.50;99.90;;;;;;5089069;28;20394;-76
2022/02/08 07:06:26;;;;;;;13.25;9.15;;;8.60;99.50;;;;;;5091310;28;20824;-77
2022/02/08 07:08:52;;;;;;;13.70;9.27;;;8.50;97.10;;;;;;5089696;28;20407;-76
2022/02/08 07:11:18;;;;;;;12.25;9.45;;;8.60;97.00;;;;;;5090728;28;20397;-74
2022/02/08 07:13:45;;;;;;;11.30;7.57;;;8.60;96.20;;;;;;5094327;28;20410;-76
2022/02/08 07:16:12;;;;;;;10.30;8.02;;;8.60;95.10;;;;;;5095881;28;20823;-76
2022/02/08 07:18:38;;;;;;;9.67;7.67;;;8.60;96.30;;;;;;5094843;28;20594;-77
2022/02/08 07:21:04;;;;;;;9.73;7.53;;;8.70;96.20;;;;;;5085939;28;20397;-77
2022/02/08 07:23:29;;;;;;;14.70;8.32;;;8.70;94.20;;;;;;5097277;28;20394;-78
2022/02/08 07:25:55;;;;;;;11.60;8.77;;;8.70;93.80;;;;;;5100399;28;20401;-78
2022/02/08 07:28:21;;;;;;;10.57;8.30;;;8.80;94.50;;;;;;5100502;28;20418;-80
2022/02/08 07:30:47;;;;;;;11.70;8.38;;;8.80;94.30;;;;;;5098610;28;20393;-76
2022/02/08 07:33:12;;;;;;;14.77;8.30;;;8.90;92.80;;;;;;5085103;28;20929;-74
2022/02/08 07:35:53;;;;;;;13.27;8.80;;;8.90;92.10;;;;;;5102354;28;20378;-77
2022/02/08 07:38:23;;;;;;;9.63;8.17;;;8.90;91.50;;;;;;5096748;28;20472;-76
2022/02/08 07:43:14;;;;;;;19.47;9.50;;;8.90;92.10;;;;;;5098569;28;20424;-76
2022/02/08 07:45:40;;;;;;;10.80;8.80;;;8.90;91.80;;;;;;5084617;28;20459;-78
2022/02/08 07:48:05;;;;;;;13.73;9.40;;;9.00;92.00;;;;;;5090103;28;20489;-76
2022/02/08 07:50:31;;;;;;;14.10;9.37;;;9.00;92.00;;;;;;5085814;28;20391;-76
2022/02/08 07:52:57;;;;;;;14.73;9.48;;;9.10;88.70;;;;;;5092712;28;20452;-76
2022/02/08 07:55:23;;;;;;;15.13;9.40;;;9.20;87.00;;;;;;5076603;28;20400;-77
2022/02/08 07:57:49;;;;;;;13.50;9.60;;;9.10;88.60;;;;;;5084146;28;20478;-76
2022/02/08 08:00:15;;;;;;;13.18;9.13;;;9.10;87.90;;;;;;5081711;28;20408;-76
2022/02/08 08:02:41;;;;;;;12.10;9.82;;;9.20;87.60;;;;;;5084369;28;20472;-76
2022/02/08 08:05:08;;;;;;;16.42;10.27;;;9.20;88.60;;;;;;5089215;28;20874;-76
2022/02/08 08:07:33;;;;;;;17.63;10.38;;;9.20;88.70;;;;;;5085941;28;20384;-76
2022/02/08 08:10:03;;;;;;;16.13;10.27;;;9.40;86.30;;;;;;5081739;28;20405;-76
2022/02/08 08:12:29;;;;;;;15.82;10.50;;;9.50;85.40;;;;;;5091107;28;20386;-76
2022/02/08 08:14:58;;;;;;;14.55;10.50;;;9.40;84.60;;;;;;5093316;28;20386;-76
2022/02/08 08:19:50;;;;;;;16.63;10.95;;;9.50;84.40;;;;;;5088195;28;20418;-76
2022/02/08 08:22:19;;;;;;;17.00;11.17;;;9.60;82.70;;;;;;5082774;28;20388;-75
2022/02/08 08:24:45;;;;;;;19.20;11.05;;;9.60;81.70;;;;;;5073398;28;20392;-78
2022/02/08 08:27:12;;;;;;;18.73;11.55;;;9.60;82.30;;;;;;5082928;28;20968;-77
2022/02/08 08:29:38;;;;;;;21.00;11.50;;;9.60;81.90;;;;;;5094615;28;20390;-79
2022/02/08 08:32:04;;;;;;;18.33;11.20;;;9.70;81.90;;;;;;5098038;28;20405;-77
2022/02/08 08:34:34;;;;;;;16.08;11.00;;;9.60;81.20;;;;;;5082157;28;20432;-79
2022/02/08 08:37:00;;;;;;;14.40;9.70;;;9.70;81.80;;;;;;5103716;28;20757;-75
2022/02/08 08:39:33;;;;;;;17.35;10.05;;;9.80;79.00;;;;;;5086222;28;20396;-78
2022/02/08 08:42:27;;;;;;;18.52;10.60;;;9.80;79.20;;;;;;5083038;28;20406;-78
2022/02/08 08:45:15;;;;;;;17.10;10.60;;;9.70;79.70;;;;;;5095320;28;20494;-77
2022/02/08 08:51:18;;;;;;;17.45;11.10;;;9.90;78.30;;;;;;5105184;28;20381;-77
2022/02/08 08:53:11;;;;;;;15.52;9.15;;;9.90;77.70;;;;;;5089673;28;20878;-79
2022/02/08 08:55:37;;;;;;;17.53;10.23;;;9.90;76.60;;;;;;5087668;28;20394;-78
2022/02/08 08:58:03;;;;;;;18.40;9.63;;;9.90;77.90;;;;;;5082439;28;20407;-78
2022/02/08 09:03:36;;;;;;;15.73;9.20;;;10.00;73.90;;;;;;5096107;28;20467;-82
2022/02/08 09:06:03;;;;;;;17.90;9.40;;;10.10;73.80;;;;;;5088034;28;20409;-81
2022/02/08 09:08:34;;;;;;;14.65;9.00;;;10.10;72.00;;;;;;5070486;28;20402;-82
2022/02/08 09:14:11;;;;;;;16.65;8.95;;;10.20;70.60;;;;;;5088890;28;20479;-82
2022/02/08 09:16:54;;;;;;;11.63;8.10;;;10.30;68.50;;;;;;5088643;28;20416;-80
2022/02/08 09:29:50;;;;;;;13.80;8.47;;;10.50;66.80;;;;;;5098073;28;20417;-83
2022/02/08 09:32:19;;;;;;;13.45;8.38;;;10.60;65.50;;;;;;5126177;28;20388;-84
2022/02/08 09:34:47;;;;;;;13.18;8.00;;;10.70;65.20;;;;;;5106447;28;20398;-78
2022/02/08 09:37:17;;;;;;;15.57;9.13;;;10.80;64.30;;;;;;5101613;28;20399;-84
2022/02/08 09:39:45;;;;;;;16.00;7.45;;;10.90;63.60;;;;;;5095531;28;20428;-81
2022/02/08 09:42:12;;;;;;;14.67;8.60;;;10.90;62.80;;;;;;5088255;28;20487;-80
2022/02/08 09:44:38;;;;;;;16.47;8.53;;;10.90;62.40;;;;;;5088815;28;20433;-80
2022/02/08 09:47:08;;;;;;;15.27;8.02;;;10.90;62.40;;;;;;5094343;28;20388;-80
2022/02/08 09:49:41;;;;;;;14.77;8.00;;;11.00;59.50;;;;;;5086149;28;20398;-82
2022/02/08 09:52:07;;;;;;;16.85;8.90;;;11.10;60.60;;;;;;5084770;28;20400;-80
2022/02/08 09:54:34;;;;;;;18.30;8.10;;;11.10;59.60;;;;;;5090800;28;20405;-80
2022/02/08 09:56:59;;;;;;;12.48;7.97;;;11.20;58.70;;;;;;5088526;28;20409;-81
2022/02/08 09:59:25;;;;;;;16.05;8.27;;;11.10;60.10;;;;;;5087824;28;20391;-79
2022/02/08 10:01:53;;;;;;;12.90;7.53;;;11.10;60.20;;;;;;5093557;28;20427;-81
2022/02/08 10:04:19;;;;;;;15.40;8.15;;;11.10;59.50;;;;;;5089252;28;20386;-81
2022/02/08 10:06:44;;;;;;;14.93;8.17;;;11.10;59.20;;;;;;5090397;28;20780;-79
2022/02/08 10:09:10;;;;;;;16.07;7.97;;;11.10;59.90;;;;;;5093448;28;20436;-79
2022/02/08 10:11:53;;;;;;;11.70;7.63;;;11.10;61.10;;;;;;5087280;28;20447;-78
2022/02/08 10:20:46;;;;;;;15.82;7.68;;;11.20;60.30;;;;;;5112899;28;20480;-78
2022/02/08 10:22:50;;;;;;;14.27;7.70;;;11.20;59.50;;;;;;5099773;28;20393;-78
2022/02/08 10:28:07;;;;;;;13.15;7.40;;;11.30;58.30;;;;;;5099587;28;20786;-81
2022/02/08 10:38:47;;;;;;;12.45;6.63;;;11.40;58.00;;;;;;5103072;28;20410;-80
2022/02/08 10:41:22;;;;;;;14.25;7.55;;;11.40;56.40;;;;;;5098927;28;20946;-80
2022/02/08 10:44:00;;;;;;;14.60;6.80;;;11.40;56.20;;;;;;5097268;28;20510;-77
2022/02/08 10:46:26;;;;;;;11.75;6.50;;;11.40;56.40;;;;;;5093932;28;20404;-78
2022/02/08 10:49:02;;;;;;;13.65;6.05;;;11.50;57.00;;;;;;5094235;28;20400;-77
2022/02/08 10:51:28;;;;;;;15.27;6.45;;;11.50;55.60;;;;;;5084487;28;20422;-78
2022/02/08 10:54:03;;;;;;;10.95;6.30;;;11.50;56.30;;;;;;5083786;28;20411;-78
2022/02/08 10:56:32;;;;;;;10.73;5.70;;;11.50;56.40;;;;;;5091530;28;20397;-78
2022/02/08 10:59:17;;;;;;;12.67;5.83;;;11.50;55.90;;;;;;5090519;28;20398;-79
2022/02/08 11:01:51;;;;;;;9.77;5.57;;;11.50;54.80;;;;;;5087856;28;20382;-80
2022/02/08 11:04:32;;;;;;;9.80;4.80;;;11.50;53.60;;;;;;5080642;28;20891;-79
2022/02/08 11:08:14;;;;;;;11.65;4.63;;;11.50;53.30;;;;;;5086500;28;20395;-79
2022/02/08 11:23:57;;;;;;;13.02;4.20;;;11.70;50.20;;;;;;5085513;28;20396;-79
2022/02/08 11:26:34;;;;;;;10.20;4.57;;;11.70;51.00;;;;;;5094856;28;20407;-78
2022/02/08 11:29:22;;;;;;;6.85;3.80;;;11.70;50.40;;;;;;5084495;28;20387;-79
2022/02/08 11:32:21;;;;;;;8.73;3.80;;;11.70;49.50;;;;;;5089890;28;20398;-79
2022/02/08 11:42:14;;;;;;;10.68;3.50;;;11.90;49.00;;;;;;5090967;28;20416;-79
2022/02/08 11:51:36;;;;;;;9.30;3.75;;;12.10;46.30;;;;;;5100828;28;20404;-78
2022/02/08 11:54:27;;;;;;;11.32;3.72;;;12.10;46.20;;;;;;5101635;28;20416;-78
2022/02/08 12:07:22;;;;;;;8.57;3.33;;;12.30;44.90;;;;;;5086263;28;20401;-80
2022/02/08 12:09:59;;;;;;;9.65;3.40;;;12.30;44.70;;;;;;5098960;28;20402;-78
2022/02/08 12:31:44;;;;;;;9.25;3.17;;;12.30;44.70;;;;;;5085082;28;20407;-78
2022/02/08 12:34:41;;;;;;;10.50;3.20;;;12.40;43.30;;;;;;5094534;28;20882;-79
2022/02/08 12:56:54;;;;;;;8.37;2.60;;;12.30;44.20;;;;;;5100993;28;20397;-79
2022/02/08 13:02:09;;;;;;;5.72;2.63;;;12.40;44.30;;;;;;5098969;28;20397;-78
2022/02/08 14:05:49;;;;;;;4.07;2.10;;;12.80;39.20;;;;;;5081249;28;20399;-77
2022/02/08 14:08:21;;;;;;;12.35;2.78;;;12.80;38.90;;;;;;5079394;28;20390;-78
2022/02/08 14:16:08;;;;;;;8.85;2.28;;;12.70;39.10;;;;;;5096498;28;20382;-78
2022/02/08 15:09:34;;;;;;;9.10;3.00;;;12.00;40.70;;;;;;5092952;28;20391;-77
2022/02/08 15:14:47;;;;;;;6.97;2.40;;;12.00;41.20;;;;;;5105954;28;20415;-78
2022/02/08 15:17:13;;;;;;;7.00;2.30;;;12.10;40.90;;;;;;5098408;28;20393;-76
2022/02/08 15:19:41;;;;;;;9.93;2.70;;;12.10;41.20;;;;;;5097413;28;20455;-78
2022/02/08 15:22:08;;;;;;;9.20;1.92;;;12.10;40.70;;;;;;5096764;28;20394;-77
2022/02/08 15:24:35;;;;;;;9.88;2.55;;;12.10;41.00;;;;;;5105471;28;20452;-77
2022/02/08 15:27:00;;;;;;;6.80;2.58;;;12.10;41.20;;;;;;5104526;28;20382;-78
2022/02/08 15:29:27;;;;;;;7.23;2.77;;;12.10;41.30;;;;;;5101109;28;20398;-77
2022/02/08 15:31:55;;;;;;;7.83;2.50;;;12.10;42.10;;;;;;5102584;28;20471;-79
2022/02/08 15:34:21;;;;;;;6.78;2.50;;;12.10;42.30;;;;;;5106158;28;20416;-79
2022/02/08 15:36:47;;;;;;;6.97;3.08;;;12.20;42.60;;;;;;5104693;28;20432;-78
2022/02/08 15:39:12;;;;;;;8.83;2.90;;;12.20;42.70;;;;;;5110494;28;20394;-77
2022/02/08 15:41:40;;;;;;;6.50;2.47;;;12.20;43.10;;;;;;5107115;28;20453;-78
2022/02/08 15:44:09;;;;;;;8.23;2.80;;;12.20;43.40;;;;;;5085434;28;20417;-79
2022/02/08 15:46:35;;;;;;;8.02;2.85;;;12.10;44.20;;;;;;5083750;28;20384;-77
2022/02/08 15:49:01;;;;;;;5.88;2.60;;;12.10;44.60;;;;;;5101202;28;20413;-79
2022/02/08 15:56:34;;;;;;;8.20;2.42;;;12.00;47.10;;;;;;5109967;28;20386;-78
2022/02/08 16:12:24;;;;;;;4.78;1.90;;;11.70;49.90;;;;;;5097883;28;20420;-77
2022/02/08 16:47:19;;;;;;;7.80;3.65;;;11.40;57.00;;;;;;5105574;28;20421;-80
2022/02/08 16:49:44;;;;;;;11.70;3.83;;;11.40;57.40;;;;;;5101184;28;20525;-79
2022/02/08 16:57:53;;;;;;;7.03;3.42;;;11.30;59.30;;;;;;5090705;28;20400;-80
2022/02/08 17:00:22;;;;;;;6.43;3.70;;;11.30;58.50;;;;;;5078865;28;20912;-80
2022/02/08 17:02:54;;;;;;;5.03;3.43;;;11.30;58.90;;;;;;5083932;28;20398;-80
2022/02/08 17:05:20;;;;;;;4.43;3.53;;;11.30;58.90;;;;;;5087976;28;20441;-81
2022/02/08 17:07:45;;;;;;;3.45;2.90;;;11.30;59.00;;;;;;5088714;28;20388;-79
2022/02/08 17:10:27;;;;;;;6.30;3.50;;;11.20;59.30;;;;;;5104887;28;20421;-79
2022/02/08 17:13:01;;;;;;;4.95;3.45;;;11.20;59.10;;;;;;5114176;28;20402;-79
2022/02/08 17:15:51;;;;;;;5.57;3.10;;;11.20;58.40;;;;;;5098006;28;20493;-78
2022/02/08 17:45:50;;;;;;;7.22;4.93;;;11.00;59.00;;;;;;5094935;28;20509;-81
2022/02/08 17:48:16;;;;;;;17.52;4.90;;;11.00;59.60;;;;;;5105297;28;20807;-80
2022/02/08 17:50:42;;;;;;;11.73;4.90;;;10.90;60.60;;;;;;5101449;28;20402;-79
2022/02/08 17:53:07;;;;;;;8.63;4.30;;;10.90;60.50;;;;;;5104023;28;20454;-78
2022/02/08 17:55:33;;;;;;;8.70;5.10;;;11.00;59.10;;;;;;5111720;28;20389;-79
2022/02/08 17:58:00;;;;;;;10.68;4.85;;;11.00;59.50;;;;;;5105803;28;20378;-80
2022/02/08 18:00:26;;;;;;;5.80;4.28;;;11.00;59.10;;;;;;5101901;28;20455;-79
2022/02/08 18:02:52;;;;;;;8.80;4.35;;;11.00;58.90;;;;;;5094891;28;20773;-80
2022/02/08 18:05:18;;;;;;;9.40;5.45;;;11.00;59.60;;;;;;5089036;28;20401;-79
2022/02/08 18:07:44;;;;;;;10.15;5.10;;;11.00;59.60;;;;;;5095752;28;20398;-80
2022/02/08 18:10:12;;;;;;;7.50;4.45;;;10.90;59.70;;;;;;5087627;28;20391;-79
2022/02/08 18:12:43;;;;;;;15.50;5.40;;;11.00;59.40;;;;;;5088776;28;20403;-79
2022/02/08 18:15:12;;;;;;;8.10;4.40;;;11.00;58.90;;;;;;5086331;28;20429;-79
2022/02/08 18:17:44;;;;;;;8.70;5.07;;;11.00;58.90;;;;;;5088669;28;20410;-79
2022/02/08 18:25:34;;;;;;;7.87;4.47;;;10.90;58.90;;;;;;5095228;28;20537;-81
2022/02/08 19:07:09;;;;;;;10.10;4.10;;;10.90;60.70;;;;;;5086770;28;20395;-79
2022/02/08 19:10:45;;;;;;;5.13;4.00;;;10.90;61.20;;;;;;5089145;28;20777;-79
2022/02/08 19:12:29;;;;;;;4.93;4.00;;;10.80;60.70;;;;;;5081397;28;20479;-79
2022/02/08 19:17:49;;;;;;;9.52;4.40;;;11.00;58.50;;;;;;5090220;28;20394;-81
2022/02/08 19:20:23;;;;;;;5.88;4.45;;;10.90;59.90;;;;;;5094054;28;20394;-80
2022/02/08 19:22:49;;;;;;;7.67;5.40;;;10.80;60.10;;;;;;5090890;28;20934;-79
2022/02/08 19:25:15;;;;;;;7.20;5.37;;;10.80;60.40;;;;;;5090180;28;20388;-80
2022/02/08 19:27:43;;;;;;;8.23;5.20;;;10.80;61.30;;;;;;5104498;28;20445;-79
2022/02/08 19:30:10;;;;;;;6.55;4.40;;;10.80;61.20;;;;;;5110574;28;20427;-80
2022/02/08 19:32:35;;;;;;;5.35;4.47;;;10.90;59.80;;;;;;5106016;28;20403;-80
2022/02/08 19:35:03;;;;;;;8.50;4.80;;;10.90;59.00;;;;;;5102635;28;20408;-79
2022/02/08 19:37:29;;;;;;;9.13;4.65;;;10.80;59.50;;;;;;5099640;28;20398;-80
2022/02/08 19:39:55;;;;;;;11.30;6.00;;;10.80;59.30;;;;;;5098779;28;20399;-79
2022/02/08 19:42:21;;;;;;;10.20;5.63;;;10.90;58.70;;;;;;5100844;28;20469;-79
2022/02/08 19:44:54;;;;;;;7.20;4.40;;;10.80;58.30;;;;;;5099776;28;20458;-79
2022/02/08 19:47:20;;;;;;;8.10;4.45;;;10.80;58.60;;;;;;5088083;28;20399;-79
2022/02/08 19:49:46;;;;;;;10.23;4.07;;;10.80;57.50;;;;;;5096713;28;20463;-81
2022/02/08 19:52:11;;;;;;;6.33;3.00;;;10.90;55.50;;;;;;5097599;28;20394;-80
2022/02/08 19:54:49;;;;;;;8.83;3.50;;;10.90;55.60;;;;;;5098299;28;20394;-80
2022/02/08 19:57:21;;;;;;;9.65;3.60;;;10.90;55.00;;;;;;5095684;28;20400;-80
2022/02/08 19:59:47;;;;;;;4.88;2.85;;;10.80;55.30;;;;;;5094097;28;20418;-80
2022/02/08 20:02:16;;;;;;;6.18;2.45;;;10.80;55.40;;;;;;5090765;28;20398;-79
2022/02/08 20:04:46;;;;;;;8.40;2.40;;;10.80;55.20;;;;;;5093818;28;20401;-81
2022/02/08 20:07:12;;;;;;;5.40;2.53;;;10.80;53.90;;;;;;5090644;28;20411;-81
2022/02/08 20:09:38;;;;;;;4.87;2.23;;;10.80;54.00;;;;;;5105812;28;20936;-81
2022/02/08 20:12:04;;;;;;;5.83;3.00;;;10.70;54.40;;;;;;5094015;28;20419;-81
2022/02/08 20:14:30;;;;;;;6.25;2.53;;;10.70;54.20;;;;;;5084806;28;20468;-79
2022/02/08 20:16:55;;;;;;;7.40;2.58;;;10.70;55.50;;;;;;5099081;28;20443;-80
2022/02/08 20:19:22;;;;;;;4.50;2.73;;;10.70;55.10;;;;;;5106827;28;20407;-80
2022/02/08 20:21:50;;;;;;;8.38;2.83;;;10.70;55.00;;;;;;5096634;28;20397;-80
2022/02/08 20:24:17;;;;;;;8.57;3.40;;;10.60;55.70;;;;;;5085086;28;20400;-79
2022/02/08 20:27:08;;;;;;;8.32;3.60;;;10.60;56.70;;;;;;5088404;28;20403;-80
2022/02/08 20:29:34;;;;;;;7.93;3.30;;;10.60;56.90;;;;;;5082034;28;20414;-79
2022/02/08 20:32:00;;;;;;;8.50;3.90;;;10.60;56.50;;;;;;5087084;28;20407;-81
2022/02/08 20:34:27;;;;;;;6.70;4.20;;;10.70;55.40;;;;;;5079831;28;20442;-80
2022/02/08 20:36:59;;;;;;;7.15;4.07;;;10.70;55.20;;;;;;5085066;28;20734;-80
2022/02/08 20:39:26;;;;;;;6.70;4.50;;;10.80;54.70;;;;;;5086804;28;20395;-79
2022/02/08 20:41:53;;;;;;;8.48;4.65;;;10.70;55.80;;;;;;5092733;28;20436;-79
2022/02/08 20:44:19;;;;;;;8.55;3.75;;;10.70;56.10;;;;;;5085790;28;20899;-79